Time,TemperatureF,DewpointF,PressureIn,WindDirection,WindDirectionDegrees,WindSpeedMPH,WindSpeedGustMPH,Humidity,HourlyPrecipIn,Conditions,Clouds,dailyrainin,SoftwareType,DateUTC
2013-08-31 00:09:00,64.6,56.1,29.96,North,351,0.0,0.0,74,0.00,,,-99.99,Weather View 32 v60,2013-08-31 07:09:00,
2013-08-31 00:19:00,64.2,55.7,29.96,North,351,0.0,0.0,74,0.00,,,-99.99,Weather View 32 v60,2013-08-31 07:19:00,
2013-08-31 00:29:00,64.2,55.7,29.96,North,351,0.0,0.0,74,0.00,,,-99.99,Weather View 32 v60,2013-08-31 07:29:00,
2013-08-31 00:39:00,63.9,56.1,29.96,ENE,65,0.0,0.0,76,0.00,,,-99.99,Weather View 32 v60,2013-08-31 07:39:00,
2013-08-31 00:49:00,63.5,55.8,29.96,ENE,65,0.0,0.0,76,0.00,,,-99.99,Weather View 32 v60,2013-08-31 07:49:00,
2013-08-31 00:59:00,63.3,56.0,29.96,ENE,65,0.0,0.0,77,0.00,,,-99.99,Weather View 32 v60,2013-08-31 07:59:00,
2013-08-31 01:09:00,63.0,55.6,29.96,ENE,65,0.0,0.0,77,0.00,,,-99.99,Weather View 32 v60,2013-08-31 08:09:00,
2013-08-31 01:19:00,62.6,55.3,29.96,ENE,65,0.0,0.0,77,0.00,,,-99.99,Weather View 32 v60,2013-08-31 08:19:00,
2013-08-31 01:30:00,62.2,55.3,29.96,ENE,65,0.0,0.0,78,0.00,,,-99.99,Weather View 32 v60,2013-08-31 08:30:00,
2013-08-31 01:39:00,61.9,55.3,29.96,ENE,65,0.0,0.0,79,0.00,,,-99.99,Weather View 32 v60,2013-08-31 08:39:00,
2013-08-31 01:49:00,61.7,55.1,29.96,ENE,65,0.0,0.0,79,0.00,,,-99.99,Weather View 32 v60,2013-08-31 08:49:00,
2013-08-31 01:59:00,61.3,55.1,29.96,ENE,65,0.0,0.0,80,0.00,,,-99.99,Weather View 32 v60,2013-08-31 08:59:00,
2013-08-31 02:09:00,61.2,55.3,29.96,ENE,65,0.0,0.0,81,0.00,,,-99.99,Weather View 32 v60,2013-08-31 09:09:00,
2013-08-31 02:19:00,61.2,55.3,29.96,ENE,65,0.0,0.0,81,0.00,,,-99.99,Weather View 32 v60,2013-08-31 09:19:00,
2013-08-31 02:29:00,61.2,55.3,29.96,ENE,65,0.0,0.0,81,0.00,,,-99.99,Weather View 32 v60,2013-08-31 09:29:00,
2013-08-31 02:39:00,61.0,55.1,29.96,ENE,65,0.0,0.0,81,0.00,,,-99.99,Weather View 32 v60,2013-08-31 09:39:00,
2013-08-31 02:49:00,60.6,55.1,29.96,ENE,65,0.0,0.0,82,0.00,,,-99.99,Weather View 32 v60,2013-08-31 09:49:00,
2013-08-31 02:59:00,60.4,54.9,29.96,NNE,26,0.0,0.0,82,0.00,,,-99.99,Weather View 32 v60,2013-08-31 09:59:00,
2013-08-31 03:09:00,60.1,54.6,29.96,NNE,26,0.0,0.0,82,0.00,,,-99.99,Weather View 32 v60,2013-08-31 10:09:00,
2013-08-31 03:19:00,59.9,54.4,29.96,NNE,26,0.0,0.0,82,0.00,,,-99.99,Weather View 32 v60,2013-08-31 10:19:00,
2013-08-31 03:29:00,59.7,54.5,29.96,NNE,26,0.0,0.0,83,0.00,,,-99.99,Weather View 32 v60,2013-08-31 10:29:00,
2013-08-31 03:39:00,59.5,54.7,29.96,NNE,26,0.0,0.0,84,0.00,,,-99.99,Weather View 32 v60,2013-08-31 10:39:00,
2013-08-31 03:49:00,59.4,54.5,29.96,NNE,26,0.0,0.0,84,0.00,,,-99.99,Weather View 32 v60,2013-08-31 10:49:00,
2013-08-31 03:59:00,59.2,54.3,29.96,NNE,26,0.0,0.0,84,0.00,,,-99.99,Weather View 32 v60,2013-08-31 10:59:00,
2013-08-31 04:09:00,58.8,54.0,29.96,NNE,26,0.0,0.0,84,0.00,,,-99.99,Weather View 32 v60,2013-08-31 11:09:00,
2013-08-31 04:19:00,59.0,54.5,29.96,NNE,26,0.0,0.0,85,0.00,,,-99.99,Weather View 32 v60,2013-08-31 11:19:00,
2013-08-31 04:29:00,58.6,54.1,29.96,NNE,26,0.0,0.0,85,0.00,,,-99.99,Weather View 32 v60,2013-08-31 11:29:00,
2013-08-31 04:39:00,58.6,54.5,29.96,NNE,26,0.0,0.0,86,0.00,,,-99.99,Weather View 32 v60,2013-08-31 11:39:00,
2013-08-31 04:49:00,58.5,54.3,29.96,NNE,26,0.0,0.0,86,0.00,,,-99.99,Weather View 32 v60,2013-08-31 11:49:00,
2013-08-31 04:59:00,58.5,54.6,29.96,NNE,26,0.0,0.0,87,0.00,,,-99.99,Weather View 32 v60,2013-08-31 11:59:00,
2013-08-31 05:09:00,58.3,54.4,29.96,NNE,26,0.0,0.0,87,0.00,,,-99.99,Weather View 32 v60,2013-08-31 12:09:00,
2013-08-31 05:19:00,58.1,54.2,29.96,NNE,26,0.0,0.0,87,0.00,,,-99.99,Weather View 32 v60,2013-08-31 12:19:00,
2013-08-31 05:29:00,57.9,54.1,29.96,NNE,26,0.0,0.0,87,0.00,,,-99.99,Weather View 32 v60,2013-08-31 12:29:00,
2013-08-31 05:39:00,57.6,53.7,29.96,NNE,26,0.0,0.0,87,0.00,,,-99.99,Weather View 32 v60,2013-08-31 12:39:00,
2013-08-31 05:49:00,57.6,53.7,29.96,NNE,26,0.0,0.0,87,0.00,,,-99.99,Weather View 32 v60,2013-08-31 12:49:00,
2013-08-31 05:59:00,57.4,53.8,29.96,ESE,114,0.0,0.0,88,0.00,,,-99.99,Weather View 32 v60,2013-08-31 12:59:00,
2013-08-31 06:09:00,57.4,53.8,29.96,ESE,114,0.0,0.0,88,0.00,,,-99.99,Weather View 32 v60,2013-08-31 13:09:00,
2013-08-31 06:19:00,57.2,53.7,29.96,ESE,114,0.0,0.0,88,0.00,,,-99.99,Weather View 32 v60,2013-08-31 13:19:00,
2013-08-31 06:29:00,57.4,53.8,29.96,ESE,114,0.0,0.0,88,0.00,,,-99.99,Weather View 32 v60,2013-08-31 13:29:00,
2013-08-31 06:39:00,57.2,53.7,29.96,ESE,114,0.0,0.0,88,0.00,,,-99.99,Weather View 32 v60,2013-08-31 13:39:00,
2013-08-31 06:49:00,57.2,53.7,29.96,ESE,114,0.0,0.0,88,0.00,,,-99.99,Weather View 32 v60,2013-08-31 13:49:00,
2013-08-31 06:59:00,57.2,53.7,29.96,ESE,114,0.0,0.0,88,0.00,,,-99.99,Weather View 32 v60,2013-08-31 13:59:00,
2013-08-31 07:09:00,57.6,54.3,29.99,ESE,114,0.0,0.0,89,0.00,,,-99.99,Weather View 32 v60,2013-08-31 14:09:00,
2013-08-31 07:19:00,58.3,55.0,29.99,ESE,114,0.0,0.0,89,0.00,,,-99.99,Weather View 32 v60,2013-08-31 14:19:00,
2013-08-31 07:29:00,59.2,55.9,29.99,ESE,114,0.0,0.0,89,0.00,,,-99.99,Weather View 32 v60,2013-08-31 14:29:00,
2013-08-31 07:39:00,60.1,56.5,29.99,NNE,17,0.0,0.0,88,0.00,,,-99.99,Weather View 32 v60,2013-08-31 14:39:00,
2013-08-31 07:49:00,61.0,57.4,29.99,North,4,0.0,0.0,88,0.00,,,-99.99,Weather View 32 v60,2013-08-31 14:49:00,
2013-08-31 07:59:00,61.9,57.6,29.99,NNW,336,0.0,0.0,86,0.00,,,-99.99,Weather View 32 v60,2013-08-31 14:59:00,
2013-08-31 08:09:00,62.6,57.7,29.99,WNW,290,0.0,0.0,84,0.00,,,-99.99,Weather View 32 v60,2013-08-31 15:09:00,
2013-08-31 08:19:00,63.3,57.4,29.99,WSW,242,0.0,0.0,81,0.00,,,-99.99,Weather View 32 v60,2013-08-31 15:19:00,
2013-08-31 08:29:00,64.2,56.8,29.99,ESE,105,0.0,0.0,77,0.00,,,-99.99,Weather View 32 v60,2013-08-31 15:29:00,
2013-08-31 08:39:00,65.3,56.0,29.99,NNE,22,0.0,0.0,72,0.00,,,-99.99,Weather View 32 v60,2013-08-31 15:39:00,
2013-08-31 08:49:00,66.4,56.7,29.99,ENE,63,0.0,0.0,71,0.00,,,-99.99,Weather View 32 v60,2013-08-31 15:49:00,
2013-08-31 08:59:00,66.9,56.4,29.99,North,351,0.0,0.0,69,0.00,,,-99.99,Weather View 32 v60,2013-08-31 15:59:00,
2013-08-31 09:09:00,67.6,55.4,29.99,NNW,346,0.0,0.0,65,0.00,,,-99.99,Weather View 32 v60,2013-08-31 16:09:00,
2013-08-31 09:19:00,68.5,55.0,29.99,NNW,329,0.0,0.0,62,0.00,,,-99.99,Weather View 32 v60,2013-08-31 16:19:00,
2013-08-31 09:29:00,69.6,55.5,29.99,WSW,254,0.0,0.0,61,0.00,,,-99.99,Weather View 32 v60,2013-08-31 16:29:00,
2013-08-31 09:39:00,70.3,54.8,29.99,NW,310,0.0,0.0,58,0.00,,,-99.99,Weather View 32 v60,2013-08-31 16:39:00,
2013-08-31 09:49:00,71.2,52.7,29.99,NNE,32,0.0,3.0,52,0.00,,,-99.99,Weather View 32 v60,2013-08-31 16:49:00,
2013-08-31 09:59:00,72.1,53.0,29.99,ENE,78,0.0,3.0,51,0.00,,,-99.99,Weather View 32 v60,2013-08-31 16:59:00,
2013-08-31 10:09:00,73.4,52.5,29.99,NE,35,0.0,3.0,48,0.00,,,-99.99,Weather View 32 v60,2013-08-31 17:09:00,
2013-08-31 10:19:00,74.8,51.4,29.99,NE,36,0.0,3.0,44,0.00,,,-99.99,Weather View 32 v60,2013-08-31 17:19:00,
2013-08-31 10:29:00,75.9,51.7,29.99,East,88,0.0,3.0,43,0.00,,,-99.99,Weather View 32 v60,2013-08-31 17:29:00,
2013-08-31 10:35:00,75.9,51.7,29.99,East,88,0.0,3.0,43,0.00,,,-99.99,Weather View 32 v60,2013-08-31 17:35:00,
2013-08-31 10:49:00,78.1,51.0,29.99,ENE,62,0.0,4.0,39,0.00,,,-99.99,Weather View 32 v60,2013-08-31 17:49:00,
2013-08-31 10:59:00,79.2,49.8,29.99,SE,139,0.0,4.0,36,0.00,,,-99.99,Weather View 32 v60,2013-08-31 17:59:00,
2013-08-31 11:09:00,80.2,49.2,29.96,NE,54,0.0,4.0,34,0.00,,,-99.99,Weather View 32 v60,2013-08-31 18:09:00,
2013-08-31 11:19:00,81.0,49.1,29.96,SE,143,0.0,4.0,33,0.00,,,-99.99,Weather View 32 v60,2013-08-31 18:19:00,
2013-08-31 11:29:00,82.0,48.3,29.96,NNW,338,0.0,4.0,31,0.00,,,-99.99,Weather View 32 v60,2013-08-31 18:29:00,
2013-08-31 11:35:00,82.0,48.3,29.96,NNW,338,0.0,4.0,31,0.00,,,-99.99,Weather View 32 v60,2013-08-31 18:35:00,
2013-08-31 11:49:00,84.6,48.7,29.96,SW,216,0.0,4.0,29,0.00,,,-99.99,Weather View 32 v60,2013-08-31 18:49:00,
2013-08-31 11:59:00,84.9,48.1,29.96,SW,218,5.0,8.0,28,0.00,,,-99.99,Weather View 32 v60,2013-08-31 18:59:00,
2013-08-31 12:09:00,85.5,47.6,29.96,West,264,0.0,8.0,27,0.00,,,-99.99,Weather View 32 v60,2013-08-31 19:09:00,
2013-08-31 12:19:00,85.5,45.5,29.96,WSW,253,4.0,9.0,25,0.00,,,-99.99,Weather View 32 v60,2013-08-31 19:19:00,
2013-08-31 12:29:00,85.8,45.8,29.96,WNW,289,0.0,9.0,25,0.00,,,-99.99,Weather View 32 v60,2013-08-31 19:29:00,
2013-08-31 12:36:00,85.8,45.8,29.96,WNW,289,0.0,9.0,25,0.00,,,-99.99,Weather View 32 v60,2013-08-31 19:36:00,
2013-08-31 12:49:00,87.1,46.9,29.96,WSW,241,0.0,9.0,25,0.00,,,-99.99,Weather View 32 v60,2013-08-31 19:49:00,
2013-08-31 12:59:00,87.6,46.2,29.96,WNW,300,0.0,9.0,24,0.00,,,-99.99,Weather View 32 v60,2013-08-31 19:59:00,
2013-08-31 13:09:00,88.0,46.5,29.96,North,356,5.0,9.0,24,0.00,,,-99.99,Weather View 32 v60,2013-08-31 20:09:00,
2013-08-31 13:19:00,88.3,46.8,29.96,North,351,0.0,8.0,24,0.00,,,-99.99,Weather View 32 v60,2013-08-31 20:19:00,
2013-08-31 13:29:00,87.3,45.9,29.93,East,97,0.0,11.0,24,0.00,,,-99.99,Weather View 32 v60,2013-08-31 20:29:00,
2013-08-31 13:37:00,87.3,45.9,29.93,East,97,0.0,11.0,24,0.00,,,-99.99,Weather View 32 v60,2013-08-31 20:37:00,
2013-08-31 13:49:00,88.7,47.2,29.93,SSW,210,4.0,11.0,24,0.00,,,-99.99,Weather View 32 v60,2013-08-31 20:49:00,
2013-08-31 13:59:00,88.0,46.5,29.93,North,351,0.0,11.0,24,0.00,,,-99.99,Weather View 32 v60,2013-08-31 20:59:00,
2013-08-31 14:09:00,87.6,47.3,29.93,West,268,0.0,11.0,25,0.00,,,-99.99,Weather View 32 v60,2013-08-31 21:09:00,
2013-08-31 14:19:00,87.3,45.9,29.93,WNW,287,0.0,11.0,24,0.00,,,-99.99,Weather View 32 v60,2013-08-31 21:19:00,
2013-08-31 14:29:00,87.6,47.3,29.93,NW,313,0.0,9.0,25,0.00,,,-99.99,Weather View 32 v60,2013-08-31 21:29:00,
2013-08-31 14:37:00,87.6,47.3,29.93,NW,313,0.0,9.0,25,0.00,,,-99.99,Weather View 32 v60,2013-08-31 21:37:00,
2013-08-31 14:49:00,87.8,46.4,29.93,SW,233,0.0,9.0,24,0.00,,,-99.99,Weather View 32 v60,2013-08-31 21:49:00,
2013-08-31 14:59:00,87.6,46.2,29.93,North,351,0.0,10.0,24,0.00,,,-99.99,Weather View 32 v60,2013-08-31 21:59:00,
2013-08-31 15:09:00,87.3,44.8,29.90,WNW,298,6.0,11.0,23,0.00,,,-99.99,Weather View 32 v60,2013-08-31 22:09:00,
2013-08-31 15:19:00,86.7,45.5,29.90,WNW,284,0.0,11.0,24,0.00,,,-99.99,Weather View 32 v60,2013-08-31 22:19:00,
2013-08-31 15:29:00,86.9,46.7,29.93,WSW,243,4.0,11.0,25,0.00,,,-99.99,Weather View 32 v60,2013-08-31 22:29:00,
2013-08-31 15:38:00,86.9,46.7,29.93,WSW,243,4.0,11.0,25,0.00,,,-99.99,Weather View 32 v60,2013-08-31 22:38:00,
2013-08-31 15:49:00,85.8,44.7,29.90,North,2,7.0,11.0,24,0.00,,,-99.99,Weather View 32 v60,2013-08-31 22:49:00,
2013-08-31 15:59:00,85.8,44.7,29.90,SSW,210,0.0,11.0,24,0.00,,,-99.99,Weather View 32 v60,2013-08-31 22:59:00,
2013-08-31 16:09:00,85.6,44.6,29.90,NNW,343,0.0,11.0,24,0.00,,,-99.99,Weather View 32 v60,2013-08-31 23:09:00,
2013-08-31 16:19:00,84.9,46.1,29.90,NW,306,0.0,11.0,26,0.00,,,-99.99,Weather View 32 v60,2013-08-31 23:19:00,
2013-08-31 16:29:00,84.7,44.9,29.90,West,281,4.0,11.0,25,0.00,,,-99.99,Weather View 32 v60,2013-08-31 23:29:00,
2013-08-31 16:38:00,84.7,44.9,29.90,West,281,4.0,11.0,25,0.00,,,-99.99,Weather View 32 v60,2013-08-31 23:38:00,
2013-08-31 16:49:00,83.8,45.2,29.90,WNW,283,0.0,10.0,26,0.00,,,-99.99,Weather View 32 v60,2013-08-31 23:49:00,
2013-08-31 16:59:00,83.3,44.7,29.90,WSW,251,0.0,10.0,26,0.00,,,-99.99,Weather View 32 v60,2013-08-31 23:59:00,
2013-08-31 17:09:00,82.8,45.3,29.90,NW,311,0.0,10.0,27,0.00,,,-99.99,Weather View 32 v60,2013-09-01 00:09:00,
2013-08-31 17:19:00,82.8,46.2,29.90,North,0,4.0,10.0,28,0.00,,,-99.99,Weather View 32 v60,2013-09-01 00:19:00,
2013-08-31 17:29:00,82.2,44.8,29.90,West,269,0.0,10.0,27,0.00,,,-99.99,Weather View 32 v60,2013-09-01 00:29:00,
2013-08-31 17:39:00,82.2,44.8,29.90,West,269,0.0,10.0,27,0.00,,,-99.99,Weather View 32 v60,2013-09-01 00:39:00,
2013-08-31 17:49:00,81.0,44.7,29.90,NNW,340,0.0,12.0,28,0.00,,,-99.99,Weather View 32 v60,2013-09-01 00:49:00,
2013-08-31 17:59:00,80.4,44.2,29.90,WSW,252,3.0,12.0,28,0.00,,,-99.99,Weather View 32 v60,2013-09-01 00:59:00,
2013-08-31 18:09:00,79.9,44.7,29.90,NW,319,0.0,12.0,29,0.00,,,-99.99,Weather View 32 v60,2013-09-01 01:09:00,
2013-08-31 18:19:00,79.5,45.3,29.90,SW,217,0.0,12.0,30,0.00,,,-99.99,Weather View 32 v60,2013-09-01 01:19:00,
2013-08-31 18:29:00,78.4,45.2,29.90,North,356,0.0,12.0,31,0.00,,,-99.99,Weather View 32 v60,2013-09-01 01:29:00,
2013-08-31 18:39:00,78.4,45.2,29.90,North,356,0.0,12.0,31,0.00,,,-99.99,Weather View 32 v60,2013-09-01 01:39:00,
2013-08-31 18:49:00,75.6,46.7,29.90,NE,46,0.0,10.0,36,0.00,,,-99.99,Weather View 32 v60,2013-09-01 01:49:00,
2013-08-31 18:59:00,74.3,48.3,29.90,NW,319,0.0,10.0,40,0.00,,,-99.99,Weather View 32 v60,2013-09-01 01:59:00,
2013-08-31 19:09:00,74.1,49.5,29.90,WNW,293,0.0,10.0,42,0.00,,,-99.99,Weather View 32 v60,2013-09-01 02:09:00,
2013-08-31 19:19:00,73.8,49.2,29.90,West,281,0.0,10.0,42,0.00,,,-99.99,Weather View 32 v60,2013-09-01 02:19:00,
2013-08-31 19:29:00,73.2,49.3,29.90,NW,310,0.0,10.0,43,0.00,,,-99.99,Weather View 32 v60,2013-09-01 02:29:00,
2013-08-31 19:40:00,72.5,49.3,29.90,WNW,289,0.0,7.0,44,0.00,,,-99.99,Weather View 32 v60,2013-09-01 02:40:00,
2013-08-31 19:49:00,72.0,48.2,29.90,WSW,254,0.0,6.0,43,0.00,,,-99.99,Weather View 32 v60,2013-09-01 02:49:00,
2013-08-31 19:59:00,71.4,47.7,29.90,West,281,0.0,5.0,43,0.00,,,-99.99,Weather View 32 v60,2013-09-01 02:59:00,
2013-08-31 20:09:00,70.3,49.7,29.93,SW,217,0.0,6.0,48,0.00,,,-99.99,Weather View 32 v60,2013-09-01 03:09:00,
2013-08-31 20:19:00,69.6,50.6,29.93,ENE,71,0.0,6.0,51,0.00,,,-99.99,Weather View 32 v60,2013-09-01 03:19:00,
2013-08-31 20:29:00,69.3,51.9,29.93,SSE,148,0.0,6.0,54,0.00,,,-99.99,Weather View 32 v60,2013-09-01 03:29:00,
2013-08-31 20:39:00,69.1,51.7,29.93,NNE,14,0.0,6.0,54,0.00,,,-99.99,Weather View 32 v60,2013-09-01 03:39:00,
2013-08-31 20:49:00,68.7,51.9,29.93,SW,227,0.0,6.0,55,0.00,,,-99.99,Weather View 32 v60,2013-09-01 03:49:00,
2013-08-31 20:59:00,68.2,52.3,29.93,NW,318,0.0,6.0,57,0.00,,,-99.99,Weather View 32 v60,2013-09-01 03:59:00,
2013-08-31 21:09:00,68.0,53.1,29.93,West,278,0.0,0.0,59,0.00,,,-99.99,Weather View 32 v60,2013-09-01 04:09:00,
2013-08-31 21:19:00,67.6,53.7,29.93,NNW,336,0.0,0.0,61,0.00,,,-99.99,Weather View 32 v60,2013-09-01 04:19:00,
2013-08-31 21:29:00,67.3,54.2,29.93,North,351,0.0,0.0,63,0.00,,,-99.99,Weather View 32 v60,2013-09-01 04:29:00,
2013-08-31 21:39:00,67.3,54.2,29.93,North,5,0.0,0.0,63,0.00,,,-99.99,Weather View 32 v60,2013-09-01 04:39:00,
2013-08-31 21:49:00,67.3,54.2,29.93,NNW,340,0.0,0.0,63,0.00,,,-99.99,Weather View 32 v60,2013-09-01 04:49:00,
2013-08-31 21:59:00,67.1,54.5,29.93,West,277,0.0,0.0,64,0.00,,,-99.99,Weather View 32 v60,2013-09-01 04:59:00,
2013-08-31 22:09:00,66.9,54.7,29.93,NNW,332,0.0,0.0,65,0.00,,,-99.99,Weather View 32 v60,2013-09-01 05:09:00,
2013-08-31 22:19:00,66.7,55.4,29.93,NNE,29,0.0,0.0,67,0.00,,,-99.99,Weather View 32 v60,2013-09-01 05:19:00,
2013-08-31 22:29:00,66.6,55.2,29.96,NNW,336,0.0,0.0,67,0.00,,,-99.99,Weather View 32 v60,2013-09-01 05:29:00,
2013-08-31 22:39:00,66.2,55.3,29.96,NNW,334,0.0,0.0,68,0.00,,,-99.99,Weather View 32 v60,2013-09-01 05:39:00,
2013-08-31 22:49:00,65.8,55.8,29.96,West,259,0.0,0.0,70,0.00,,,-99.99,Weather View 32 v60,2013-09-01 05:49:00,
2013-08-31 22:59:00,65.7,55.6,29.96,North,351,0.0,0.0,70,0.00,,,-99.99,Weather View 32 v60,2013-09-01 05:59:00,
2013-08-31 23:09:00,65.5,55.4,29.96,NW,324,0.0,0.0,70,0.00,,,-99.99,Weather View 32 v60,2013-09-01 06:09:00,
2013-08-31 23:19:00,65.1,55.1,29.96,SW,235,0.0,3.0,70,0.00,,,-99.99,Weather View 32 v60,2013-09-01 06:19:00,
2013-08-31 23:29:00,64.9,55.7,29.93,South,190,0.0,5.0,72,0.00,,,-99.99,Weather View 32 v60,2013-09-01 06:29:00,
2013-08-31 23:39:00,64.6,55.7,29.96,NW,320,0.0,5.0,73,0.00,,,-99.99,Weather View 32 v60,2013-09-01 06:39:00,
2013-08-31 23:42:00,64.6,55.7,29.96,NW,320,0.0,5.0,73,0.00,,,-99.99,Weather View 32 v60,2013-09-01 06:42:00,
2013-08-31 23:49:00,64.2,56.1,29.96,NNW,329,0.0,5.0,75,0.00,,,-99.99,Weather View 32 v60,2013-09-01 06:49:00,
2013-08-31 23:59:00,63.7,56.3,29.96,NNE,22,0.0,5.0,77,0.00,,,-99.99,Weather View 32 v60,2013-09-01 06:59:00,